Home > Products > Valid Products > TAF

000
FTUS43 KARX 012330
TAFLSE
TAF
KLSE 012330Z 0200/0224 30007KT P6SM SKC
     FM020700 20004KT P6SM SCT100
     FM021400 26006KT P6SM BKN100
     FM021700 28010KT P6SM BKN060=



000
FTUS43 KARX 012330
TAFRST
TAF
KRST 012330Z 0200/0224 30010KT P6SM SKC
     FM020600 24005KT P6SM SCT100
     FM021300 28008KT P6SM BKN100
     FM021700 28008KT P6SM BKN050=



000
FTUS43 KARX 012330
TAFLSE
TAF
KLSE 012330Z 0200/0224 30007KT P6SM SKC
     FM020700 20004KT P6SM SCT100
     FM021400 26006KT P6SM BKN100
     FM021700 28010KT P6SM BKN060=



000
FTUS43 KARX 012330
TAFRST
TAF
KRST 012330Z 0200/0224 30010KT P6SM SKC
     FM020600 24005KT P6SM SCT100
     FM021300 28008KT P6SM BKN100
     FM021700 28008KT P6SM BKN050=



000
FTUS43 KARX 011839 AAA
TAFLSE
TAF AMD
KLSE 011839Z 0119/0218 28010KT P6SM VCTS SCT030CB BKN035
      TEMPO 0119/0120 4SM -RA BKN040 OVC060
     FM012000 28011KT P6SM SCT045
     FM020000 27005KT P6SM SKC
     FM020700 24004KT P6SM SCT100
     FM021400 26006KT P6SM BKN100=



000
FTUS43 KARX 011839 AAA
TAFLSE
TAF AMD
KLSE 011839Z 0119/0218 28010KT P6SM VCTS SCT030CB BKN035
      TEMPO 0119/0120 4SM -RA BKN040 OVC060
     FM012000 28011KT P6SM SCT045
     FM020000 27005KT P6SM SKC
     FM020700 24004KT P6SM SCT100
     FM021400 26006KT P6SM BKN100=



000
FTUS43 KARX 011731
TAFRST
TAF
KRST 011731Z 0118/0218 29013KT P6SM SCT030
     FM012100 29012KT P6SM SCT040
     FM020000 25005KT P6SM SKC
     FM020600 22005KT P6SM SCT100
     FM021300 26008KT P6SM BKN100=



000
FTUS43 KARX 011731
TAFLSE
TAF
KLSE 011731Z 0118/0218 28010KT P6SM SCT025 BKN035
      TEMPO 0118/0120 3SM -RA BKN040 OVC060
     FM012000 28011KT P6SM SCT045
     FM020000 27005KT P6SM SKC
     FM020700 24004KT P6SM SCT100
     FM021400 26006KT P6SM BKN100=



000
FTUS43 KARX 011731
TAFLSE
TAF
KLSE 011731Z 0118/0218 28010KT P6SM SCT025 BKN035
      TEMPO 0118/0120 3SM -RA BKN040 OVC060
     FM012000 28011KT P6SM SCT045
     FM020000 27005KT P6SM SKC
     FM020700 24004KT P6SM SCT100
     FM021400 26006KT P6SM BKN100=



000
FTUS43 KARX 011731
TAFRST
TAF
KRST 011731Z 0118/0218 29013KT P6SM SCT030
     FM012100 29012KT P6SM SCT040
     FM020000 25005KT P6SM SKC
     FM020600 22005KT P6SM SCT100
     FM021300 26008KT P6SM BKN100=



000
FTUS43 KARX 011550 AAB
TAFRST
TAF AMD
KRST 011550Z 0116/0212 28010KT P6SM BKN015 OVC060
      TEMPO 0116/0117 P6SM -SHRA BKN020 OVC070
     FM011700 29010KT P6SM BKN025
     FM011900 29012KT P6SM SCT025
     FM020000 25006KT P6SM SKC=



000
FTUS43 KARX 011550 AAB
TAFRST
TAF AMD
KRST 011550Z 0116/0212 28010KT P6SM BKN015 OVC060
      TEMPO 0116/0117 P6SM -SHRA BKN020 OVC070
     FM011700 29010KT P6SM BKN025
     FM011900 29012KT P6SM SCT025
     FM020000 25006KT P6SM SKC=



000
FTUS43 KARX 011548 AAB
TAFLSE
TAF AMD
KLSE 011548Z 0116/0212 18010KT P6SM BKN015 OVC045
      TEMPO 0116/0118 P6SM -SHRA BKN020 OVC050
     FM011800 28010KT P6SM BKN025
     FM012000 28011KT P6SM SCT025
     FM020000 27005KT P6SM SKC=



000
FTUS43 KARX 011548 AAB
TAFLSE
TAF AMD
KLSE 011548Z 0116/0212 18010KT P6SM BKN015 OVC045
      TEMPO 0116/0118 P6SM -SHRA BKN020 OVC050
     FM011800 28010KT P6SM BKN025
     FM012000 28011KT P6SM SCT025
     FM020000 27005KT P6SM SKC=



000
FTUS43 KARX 011400 AAA
TAFLSE
TAF AMD
KLSE 011400Z 0114/0212 16005KT P6SM VCTS SCT025CB BKN060
      TEMPO 0114/0116 3SM -TSRA BKN015CB OVC025
     FM011600 27010KT P6SM BKN025
     FM011700 28010KT P6SM BKN025
     FM012000 28011KT P6SM SCT025
     FM020000 27005KT P6SM SKC=



000
FTUS43 KARX 011400 AAA
TAFLSE
TAF AMD
KLSE 011400Z 0114/0212 16005KT P6SM VCTS SCT025CB BKN060
      TEMPO 0114/0116 3SM -TSRA BKN015CB OVC025
     FM011600 27010KT P6SM BKN025
     FM011700 28010KT P6SM BKN025
     FM012000 28011KT P6SM SCT025
     FM020000 27005KT P6SM SKC=



000
FTUS43 KARX 011338 AAA
TAFRST
TAF AMD
KRST 011338Z 0114/0212 26010KT P6SM OVC006
      TEMPO 0114/0116 4SM -SHRA OVC010
     FM011600 28010KT P6SM OVC012
     FM011700 29010KT P6SM BKN025
     FM011900 29012KT P6SM SCT025
     FM020000 25006KT P6SM SKC=



000
FTUS43 KARX 011338 AAA
TAFRST
TAF AMD
KRST 011338Z 0114/0212 26010KT P6SM OVC006
      TEMPO 0114/0116 4SM -SHRA OVC010
     FM011600 28010KT P6SM OVC012
     FM011700 29010KT P6SM BKN025
     FM011900 29012KT P6SM SCT025
     FM020000 25006KT P6SM SKC=



000
FTUS43 KARX 011130
TAFRST
TAF
KRST 011130Z 0112/0212 26010KT P6SM OVC008
     FM011500 28010KT P6SM OVC012
     FM011700 29010KT P6SM BKN025
     FM011900 29012KT P6SM SCT025
     FM020000 25006KT P6SM SKC=



000
FTUS43 KARX 011130
TAFLSE
TAF
KLSE 011130Z 0112/0212 16004KT P6SM VCTS SCT025CB BKN090
      TEMPO 0112/0114 3SM -TSRA BKN020CB
     FM011500 27010KT P6SM OVC015
     FM011700 28010KT P6SM BKN025
     FM012000 28011KT P6SM SCT025
     FM020000 27005KT P6SM SKC=



000
FTUS43 KARX 011130
TAFRST
TAF
KRST 011130Z 0112/0212 26010KT P6SM OVC008
     FM011500 28010KT P6SM OVC012
     FM011700 29010KT P6SM BKN025
     FM011900 29012KT P6SM SCT025
     FM020000 25006KT P6SM SKC=



000
FTUS43 KARX 011130
TAFLSE
TAF
KLSE 011130Z 0112/0212 16004KT P6SM VCTS SCT025CB BKN090
      TEMPO 0112/0114 3SM -TSRA BKN020CB
     FM011500 27010KT P6SM OVC015
     FM011700 28010KT P6SM BKN025
     FM012000 28011KT P6SM SCT025
     FM020000 27005KT P6SM SKC=



000
FTUS43 KARX 011040 AAC
TAFRST
TAF AMD
KRST 011040Z 0111/0206 19012G22KT P6SM VCSH OVC040
      TEMPO 0111/0112 2SM TSRA BKN010CB
     FM011200 25010KT 4SM BR OVC005
     FM011500 28010KT P6SM OVC012
     FM011800 30012KT P6SM BKN025
     FM020000 30005KT P6SM SCT025=



000
FTUS43 KARX 011040 AAC
TAFRST
TAF AMD
KRST 011040Z 0111/0206 19012G22KT P6SM VCSH OVC040
      TEMPO 0111/0112 2SM TSRA BKN010CB
     FM011200 25010KT 4SM BR OVC005
     FM011500 28010KT P6SM OVC012
     FM011800 30012KT P6SM BKN025
     FM020000 30005KT P6SM SCT025=



000
FTUS43 KARX 011005 AAB
TAFLSE
TAF AMD
KLSE 011005Z 0110/0206 16005KT P6SM VCSH SCT100 BKN150
      TEMPO 0111/0113 4SM -SHRA BKN025
     FM011300 22008KT 4SM BR OVC008
     FM011500 25010KT P6SM OVC015
     FM011900 30010KT P6SM BKN025
     FM020000 30006KT P6SM SCT025=



000
FTUS43 KARX 010903 AAB
TAFRST
TAF AMD
KRST 010903Z 0109/0206 19011KT P6SM VCSH BKN060
      TEMPO 0109/0111 5SM -SHRA BKN035
     FM011100 25010KT 4SM BR OVC005
     FM011500 28010KT P6SM OVC012
     FM011800 30012KT P6SM BKN025
     FM020000 30005KT P6SM SCT025=



000
FTUS43 KARX 010903 AAB
TAFRST
TAF AMD
KRST 010903Z 0109/0206 19011KT P6SM VCSH BKN060
      TEMPO 0109/0111 5SM -SHRA BKN035
     FM011100 25010KT 4SM BR OVC005
     FM011500 28010KT P6SM OVC012
     FM011800 30012KT P6SM BKN025
     FM020000 30005KT P6SM SCT025=



000
FTUS43 KARX 010702 AAA
TAFLSE
TAF AMD
KLSE 010702Z 0107/0206 19011G21KT P6SM -SHRA SCT012 BKN120
     FM011000 22010KT 3SM BR OVC008
     FM011500 25010KT P6SM OVC015
     FM011900 30010KT P6SM BKN025
     FM020000 30006KT P6SM SCT025=



000
FTUS43 KARX 010702 AAA
TAFLSE
TAF AMD
KLSE 010702Z 0107/0206 19011G21KT P6SM -SHRA SCT012 BKN120
     FM011000 22010KT 3SM BR OVC008
     FM011500 25010KT P6SM OVC015
     FM011900 30010KT P6SM BKN025
     FM020000 30006KT P6SM SCT025=



000
FTUS43 KARX 010657 AAA
TAFRST
TAF AMD
KRST 010657Z 0107/0206 19012G20KT P6SM SCT008 OVC150
     FM010900 21010KT 4SM BR OVC005
     FM011500 28010KT P6SM OVC012
     FM011800 30012KT P6SM BKN025
     FM020000 30005KT P6SM SCT025=



000
FTUS43 KARX 010657 AAA
TAFRST
TAF AMD
KRST 010657Z 0107/0206 19012G20KT P6SM SCT008 OVC150
     FM010900 21010KT 4SM BR OVC005
     FM011500 28010KT P6SM OVC012
     FM011800 30012KT P6SM BKN025
     FM020000 30005KT P6SM SCT025=



000
FTUS43 KARX 010520
TAFLSE
TAF
KLSE 010520Z 0106/0206 15006KT 5SM -TSRA BR BKN040CB
      TEMPO 0106/0107 3SM TSRA BR BKN025CB
     FM010700 18008KT 5SM -SHRA BR BKN012
     FM010900 22010KT 3SM BR OVC008
     FM011500 25010KT P6SM OVC015
     FM011900 30010KT P6SM BKN025
     FM020000 30006KT P6SM SCT025=



000
FTUS43 KARX 010520
TAFRST
TAF
KRST 010520Z 0106/0206 20012KT 4SM -SHRA BR BKN010 OVC050
     FM010700 21010KT 4SM BR OVC005
     FM011500 28010KT P6SM OVC012
     FM011800 30012KT P6SM BKN025
     FM020000 30005KT P6SM SCT025=



000
FTUS43 KARX 010520
TAFLSE
TAF
KLSE 010520Z 0106/0206 15006KT 5SM -TSRA BR BKN040CB
      TEMPO 0106/0107 3SM TSRA BR BKN025CB
     FM010700 18008KT 5SM -SHRA BR BKN012
     FM010900 22010KT 3SM BR OVC008
     FM011500 25010KT P6SM OVC015
     FM011900 30010KT P6SM BKN025
     FM020000 30006KT P6SM SCT025=



000
FTUS43 KARX 010520
TAFRST
TAF
KRST 010520Z 0106/0206 20012KT 4SM -SHRA BR BKN010 OVC050
     FM010700 21010KT 4SM BR OVC005
     FM011500 28010KT P6SM OVC012
     FM011800 30012KT P6SM BKN025
     FM020000 30005KT P6SM SCT025=



000
FTUS43 KARX 010140 AAB
TAFLSE
TAF AMD
KLSE 010140Z 0102/0124 23006KT P6SM BKN100
      TEMPO 0103/0105 -SHRA SCT035 BKN050
     FM010500 19011KT 5SM -TSRA BR BKN040CB
      TEMPO 0105/0108 3SM TSRA BR BKN025CB
     FM010900 22008KT 5SM -SHRA BR BKN012
     FM011300 22010KT 5SM -SHRA BR VCTS OVC008CB
     FM011600 25010KT 5SM -SHRA BR OVC015
     FM011900 30010KT P6SM BKN025=



000
FTUS43 KARX 010140 AAB
TAFLSE
TAF AMD
KLSE 010140Z 0102/0124 23006KT P6SM BKN100
      TEMPO 0103/0105 -SHRA SCT035 BKN050
     FM010500 19011KT 5SM -TSRA BR BKN040CB
      TEMPO 0105/0108 3SM TSRA BR BKN025CB
     FM010900 22008KT 5SM -SHRA BR BKN012
     FM011300 22010KT 5SM -SHRA BR VCTS OVC008CB
     FM011600 25010KT 5SM -SHRA BR OVC015
     FM011900 30010KT P6SM BKN025=



000
FTUS43 KARX 010134 AAA
TAFRST
TAF AMD
KRST 010134Z 0102/0124 23008KT P6SM BKN100
      TEMPO 0102/0104 -SHRA SCT035 BKN050
     FM010400 20012KT 4SM -TSRA BR SCT005 BKN035CB
      TEMPO 0104/0107 3SM TSRA BR BKN020CB
     FM010900 24012KT 4SM -SHRA BR OVC005
     FM011400 28010KT 5SM -SHRA BR OVC012
     FM011700 30012KT P6SM BKN025=



000
FTUS43 KARX 010134 AAA
TAFRST
TAF AMD
KRST 010134Z 0102/0124 23008KT P6SM BKN100
      TEMPO 0102/0104 -SHRA SCT035 BKN050
     FM010400 20012KT 4SM -TSRA BR SCT005 BKN035CB
      TEMPO 0104/0107 3SM TSRA BR BKN020CB
     FM010900 24012KT 4SM -SHRA BR OVC005
     FM011400 28010KT 5SM -SHRA BR OVC012
     FM011700 30012KT P6SM BKN025=



000
FTUS43 KARX 010021 AAA
TAFLSE
TAF AMD
KLSE 010021Z 0100/0124 18012KT P6SM BKN100
      TEMPO 0100/0103 24014G22KT 5SM -TSRA BKN035CB
     FM010500 19011KT 5SM -TSRA BR BKN040CB
      TEMPO 0105/0108 3SM TSRA BR BKN025CB
     FM010900 22008KT 5SM -SHRA BR BKN012
     FM011300 22010KT 5SM -SHRA BR VCTS OVC008CB
     FM011600 25010KT 5SM -SHRA BR OVC015
     FM011900 30010KT P6SM BKN025=



000
FTUS43 KARX 010021 AAA
TAFLSE
TAF AMD
KLSE 010021Z 0100/0124 18012KT P6SM BKN100
      TEMPO 0100/0103 24014G22KT 5SM -TSRA BKN035CB
     FM010500 19011KT 5SM -TSRA BR BKN040CB
      TEMPO 0105/0108 3SM TSRA BR BKN025CB
     FM010900 22008KT 5SM -SHRA BR BKN012
     FM011300 22010KT 5SM -SHRA BR VCTS OVC008CB
     FM011600 25010KT 5SM -SHRA BR OVC015
     FM011900 30010KT P6SM BKN025=



000
FTUS43 KARX 312325
TAFLSE
TAF
KLSE 312325Z 0100/0124 18012KT P6SM BKN100
     FM010500 19011KT 5SM -TSRA BR BKN040CB
      TEMPO 0105/0108 3SM TSRA BR BKN025CB
     FM010900 22008KT 5SM -SHRA BR BKN012
     FM011300 22010KT 5SM -SHRA BR VCTS OVC008CB
     FM011600 25010KT 5SM -SHRA BR OVC015
     FM011900 30010KT P6SM BKN025=



000
FTUS43 KARX 312325
TAFRST
TAF
KRST 312325Z 0100/0124 19014KT P6SM BKN100
     FM010400 20012KT 4SM -TSRA BR SCT005 BKN035CB
      TEMPO 0104/0107 3SM TSRA BR BKN020CB
     FM010900 24012KT 4SM -SHRA BR OVC005
     FM011400 28010KT 5SM -SHRA BR OVC012
     FM011700 30012KT P6SM BKN025=



000
FTUS43 KARX 312325
TAFLSE
TAF
KLSE 312325Z 0100/0124 18012KT P6SM BKN100
     FM010500 19011KT 5SM -TSRA BR BKN040CB
      TEMPO 0105/0108 3SM TSRA BR BKN025CB
     FM010900 22008KT 5SM -SHRA BR BKN012
     FM011300 22010KT 5SM -SHRA BR VCTS OVC008CB
     FM011600 25010KT 5SM -SHRA BR OVC015
     FM011900 30010KT P6SM BKN025=



000
FTUS43 KARX 312325
TAFRST
TAF
KRST 312325Z 0100/0124 19014KT P6SM BKN100
     FM010400 20012KT 4SM -TSRA BR SCT005 BKN035CB
      TEMPO 0104/0107 3SM TSRA BR BKN020CB
     FM010900 24012KT 4SM -SHRA BR OVC005
     FM011400 28010KT 5SM -SHRA BR OVC012
     FM011700 30012KT P6SM BKN025=



000
FTUS43 KARX 311727
TAFRST
TAF
KRST 311727Z 3118/0118 18016G25KT P6SM SCT100
     FM312200 19017G26KT P6SM VCSH BKN100
     FM010100 19014KT P6SM BKN100
     FM010500 20012KT 4SM -TSRA BR SCT005 BKN040CB
     FM010900 24012KT 2SM -SHRA BR OVC005
     FM011400 26010KT 5SM -SHRA BR OVC012=



000
FTUS43 KARX 311727
TAFLSE
TAF
KLSE 311727Z 3118/0118 19014G21KT P6SM SCT030
     FM010200 18012KT P6SM BKN100
     FM010600 19011KT 5SM -TSRA BR BKN040CB
      TEMPO 0106/0108 3SM TSRA BR BKN025CB
     FM010900 22008KT 5SM -SHRA BR BKN012
     FM011300 22010KT 5SM -SHRA BR VCTS OVC008CB
     FM011600 25010KT 5SM -SHRA BR OVC015=



000
FTUS43 KARX 311727
TAFLSE
TAF
KLSE 311727Z 3118/0118 19014G21KT P6SM SCT030
     FM010200 18012KT P6SM BKN100
     FM010600 19011KT 5SM -TSRA BR BKN040CB
      TEMPO 0106/0108 3SM TSRA BR BKN025CB
     FM010900 22008KT 5SM -SHRA BR BKN012
     FM011300 22010KT 5SM -SHRA BR VCTS OVC008CB
     FM011600 25010KT 5SM -SHRA BR OVC015=



000
FTUS43 KARX 311727
TAFRST
TAF
KRST 311727Z 3118/0118 18016G25KT P6SM SCT100
     FM312200 19017G26KT P6SM VCSH BKN100
     FM010100 19014KT P6SM BKN100
     FM010500 20012KT 4SM -TSRA BR SCT005 BKN040CB
     FM010900 24012KT 2SM -SHRA BR OVC005
     FM011400 26010KT 5SM -SHRA BR OVC012=



000
FTUS43 KARX 311612 AAB
TAFRST
TAF AMD
KRST 311612Z 3116/0112 18014G24KT P6SM SCT100
     FM312300 19017G26KT P6SM VCSH BKN100
     FM010100 19014KT P6SM BKN100
     FM010500 20012KT 4SM -TSRA BR SCT005 BKN040CB
     FM010900 24012KT 2SM -SHRA BR OVC005=



000
FTUS43 KARX 311612 AAB
TAFRST
TAF AMD
KRST 311612Z 3116/0112 18014G24KT P6SM SCT100
     FM312300 19017G26KT P6SM VCSH BKN100
     FM010100 19014KT P6SM BKN100
     FM010500 20012KT 4SM -TSRA BR SCT005 BKN040CB
     FM010900 24012KT 2SM -SHRA BR OVC005=



000
FTUS43 KARX 311236 AAA
TAFLSE
TAF AMD
KLSE 311236Z 3113/0112 12004KT P6SM BKN009
     FM311400 16006KT P6SM SCT015 BKN080
     FM311500 17008KT P6SM BKN080
     FM311800 17012KT P6SM SCT090
     FM010000 17010KT P6SM VCTS BKN060CB
      TEMPO 0101/0105 5SM TSRA BKN040CB=



000
FTUS43 KARX 311155 AAA
TAFRST
TAF AMD
KRST 311155Z 3112/0112 14008KT 1/4SM FG VV002
     FM311330 16009KT 5SM BR SCT008 BKN070
     FM311400 17010KT P6SM BKN070
     FM311700 18014G24KT P6SM SCT080
     FM312300 18010KT P6SM VCTS BKN050CB
      TEMPO 0100/0104 2SM TSRA SCT006 BKN025CB
     FM010500 18010KT 4SM BR VCTS SCT005 BKN025CB=



000
FTUS43 KARX 311155 AAA
TAFRST
TAF AMD
KRST 311155Z 3112/0112 14008KT 1/4SM FG VV002
     FM311330 16009KT 5SM BR SCT008 BKN070
     FM311400 17010KT P6SM BKN070
     FM311700 18014G24KT P6SM SCT080
     FM312300 18010KT P6SM VCTS BKN050CB
      TEMPO 0100/0104 2SM TSRA SCT006 BKN025CB
     FM010500 18010KT 4SM BR VCTS SCT005 BKN025CB=



000
FTUS43 KARX 311120
TAFRST
TAF
KRST 311120Z 3112/0112 14005KT 3SM BR BKN008
     FM311400 17010KT P6SM BKN070
     FM311700 18014G24KT P6SM SCT080
     FM312300 18010KT P6SM VCTS BKN050CB
      TEMPO 0100/0104 2SM TSRA SCT006 BKN025CB
     FM010500 18010KT 4SM BR VCTS SCT005 BKN025CB=



000
FTUS43 KARX 311120
TAFLSE
TAF
KLSE 311120Z 3112/0112 VRB04KT P6SM SCT003 BKN012
     FM311400 16006KT P6SM SCT015 BKN080
     FM311500 17008KT P6SM BKN080
     FM311800 17012KT P6SM SCT090
     FM010000 17010KT P6SM VCTS BKN060CB
      TEMPO 0101/0105 5SM TSRA BKN040CB=



000
FTUS43 KARX 311120
TAFLSE
TAF
KLSE 311120Z 3112/0112 VRB04KT P6SM SCT003 BKN012
     FM311400 16006KT P6SM SCT015 BKN080
     FM311500 17008KT P6SM BKN080
     FM311800 17012KT P6SM SCT090
     FM010000 17010KT P6SM VCTS BKN060CB
      TEMPO 0101/0105 5SM TSRA BKN040CB=



000
FTUS43 KARX 311120
TAFRST
TAF
KRST 311120Z 3112/0112 14005KT 3SM BR BKN008
     FM311400 17010KT P6SM BKN070
     FM311700 18014G24KT P6SM SCT080
     FM312300 18010KT P6SM VCTS BKN050CB
      TEMPO 0100/0104 2SM TSRA SCT006 BKN025CB
     FM010500 18010KT 4SM BR VCTS SCT005 BKN025CB=



000
FTUS43 KARX 311043 AAC
TAFLSE
TAF AMD
KLSE 311043Z 3111/0106 VRB04KT P6SM BKN003
     FM311400 16006KT P6SM SCT003 BKN015
     FM311500 17010KT P6SM SCT015 BKN090=



000
FTUS43 KARX 311043 AAC
TAFLSE
TAF AMD
KLSE 311043Z 3111/0106 VRB04KT P6SM BKN003
     FM311400 16006KT P6SM SCT003 BKN015
     FM311500 17010KT P6SM SCT015 BKN090=



000
FTUS43 KARX 311007 AAB
TAFLSE
TAF AMD
KLSE 311007Z 3110/0106 VRB04KT P6SM SCT008 BKN015
     FM311500 16006KT P6SM SCT020
     FM311600 17010KT P6SM SCT080=



000
FTUS43 KARX 311007 AAB
TAFLSE
TAF AMD
KLSE 311007Z 3110/0106 VRB04KT P6SM SCT008 BKN015
     FM311500 16006KT P6SM SCT020
     FM311600 17010KT P6SM SCT080=



000
FTUS43 KARX 310817 AAB
TAFRST
TAF AMD
KRST 310817Z 3108/0106 VRB04KT 1/4SM FG VV002
     FM311100 17005KT 3SM BR BKN008
     FM311400 17012KT P6SM SCT080
     FM311700 18015G24KT P6SM SCT080
     FM010000 17010KT P6SM BKN060
      TEMPO 0102/0106 3SM -TSRA BKN035CB=



000
FTUS43 KARX 310817 AAB
TAFRST
TAF AMD
KRST 310817Z 3108/0106 VRB04KT 1/4SM FG VV002
     FM311100 17005KT 3SM BR BKN008
     FM311400 17012KT P6SM SCT080
     FM311700 18015G24KT P6SM SCT080
     FM010000 17010KT P6SM BKN060
      TEMPO 0102/0106 3SM -TSRA BKN035CB=



000
FTUS43 KARX 310619 AAA
TAFLSE
TAF AMD
KLSE 310619Z 3106/0106 VRB03KT P6SM SCT025
     FM310800 12003KT 4SM BR SCT005
     FM311000 13003KT 2SM BR SCT002
     FM311400 15006KT 4SM BR BKN006
     FM311500 17010KT P6SM SCT080=



000
FTUS43 KARX 310619 AAA
TAFLSE
TAF AMD
KLSE 310619Z 3106/0106 VRB03KT P6SM SCT025
     FM310800 12003KT 4SM BR SCT005
     FM311000 13003KT 2SM BR SCT002
     FM311400 15006KT 4SM BR BKN006
     FM311500 17010KT P6SM SCT080=



000
FTUS43 KARX 310613 AAA
TAFRST
TAF AMD
KRST 310613Z 3106/0106 VRB04KT 5SM BR FEW002 SCT025
      TEMPO 3107/3111 3SM BR BKN002
     FM311400 17012KT P6SM SCT080
     FM311700 18015G24KT P6SM SCT080
     FM010000 17010KT P6SM BKN060
      TEMPO 0102/0106 3SM -TSRA BKN035CB=



000
FTUS43 KARX 310613 AAA
TAFRST
TAF AMD
KRST 310613Z 3106/0106 VRB04KT 5SM BR FEW002 SCT025
      TEMPO 3107/3111 3SM BR BKN002
     FM311400 17012KT P6SM SCT080
     FM311700 18015G24KT P6SM SCT080
     FM010000 17010KT P6SM BKN060
      TEMPO 0102/0106 3SM -TSRA BKN035CB=



000
FTUS43 KARX 310520
TAFLSE
TAF
KLSE 310520Z 3106/0106 VRB03KT P6SM SCT025
      TEMPO 3106/3108 BKN025
     FM310800 12003KT 4SM BR SKC
     FM311000 13003KT 2SM BR SCT002
     FM311400 15006KT 4SM BR BKN006
     FM311500 17010KT P6SM SCT080=



000
FTUS43 KARX 310520
TAFRST
TAF
KRST 310520Z 3106/0106 VRB04KT P6SM SCT025
      TEMPO 3106/3108 BKN025
     FM310800 18004KT 4SM BR FEW025
     FM311400 17012KT P6SM SCT080
     FM311700 18015G24KT P6SM SCT080
     FM010000 17010KT P6SM BKN060
      TEMPO 0102/0106 3SM -TSRA BKN035CB=



000
FTUS43 KARX 310520
TAFLSE
TAF
KLSE 310520Z 3106/0106 VRB03KT P6SM SCT025
      TEMPO 3106/3108 BKN025
     FM310800 12003KT 4SM BR SKC
     FM311000 13003KT 2SM BR SCT002
     FM311400 15006KT 4SM BR BKN006
     FM311500 17010KT P6SM SCT080=



000
FTUS43 KARX 310520
TAFRST
TAF
KRST 310520Z 3106/0106 VRB04KT P6SM SCT025
      TEMPO 3106/3108 BKN025
     FM310800 18004KT 4SM BR FEW025
     FM311400 17012KT P6SM SCT080
     FM311700 18015G24KT P6SM SCT080
     FM010000 17010KT P6SM BKN060
      TEMPO 0102/0106 3SM -TSRA BKN035CB=



000
FTUS43 KARX 302320
TAFRST
TAF
KRST 302320Z 3100/3124 34004KT P6SM VCSH SCT025 BKN080
     FM310200 VRB04KT P6SM SCT025
     FM310800 18004KT 5SM BR SKC
      TEMPO 3110/3113 2SM BR SCT002
     FM311400 17012KT P6SM SCT080=



000
FTUS43 KARX 302320
TAFRST
TAF
KRST 302320Z 3100/3124 34004KT P6SM VCSH SCT025 BKN080
     FM310200 VRB04KT P6SM SCT025
     FM310800 18004KT 5SM BR SKC
      TEMPO 3110/3113 2SM BR SCT002
     FM311400 17012KT P6SM SCT080=



000
FTUS43 KARX 302320
TAFLSE
TAF
KLSE 302320Z 3100/3124 VRB03KT P6SM SCT025
     FM310800 12003KT 4SM BR SKC
     FM310900 13003KT 1/2SM FG VV002
     FM311400 15006KT 4SM BR BKN006
     FM311600 17010KT P6SM SCT080=



000
FTUS43 KARX 302320
TAFLSE
TAF
KLSE 302320Z 3100/3124 VRB03KT P6SM SCT025
     FM310800 12003KT 4SM BR SKC
     FM310900 13003KT 1/2SM FG VV002
     FM311400 15006KT 4SM BR BKN006
     FM311600 17010KT P6SM SCT080=



000
FTUS43 KARX 301903 AAA
TAFRST
TAF AMD
KRST 301903Z 3019/3118 32008KT P6SM VCSH BKN035
     FM310100 VRB04KT P6SM BKN028
     FM310800 18004KT 5SM BR SKC
      TEMPO 3110/3113 2SM BR SCT002
     FM311430 17012KT P6SM SCT080=



000
FTUS43 KARX 301841 AAA
TAFLSE
TAF AMD
KLSE 301841Z 3019/3118 31009KT P6SM VCSH BKN035
     FM310200 VRB03KT P6SM BKN030
     FM310800 12003KT 4SM BR SKC
     FM310915 13003KT 1/2SM FG VV002
     FM311400 14005KT 4SM BR BKN006
     FM311500 16009KT P6SM SCT080=



000
FTUS43 KARX 301727
TAFLSE
TAF
KLSE 301727Z 3018/3118 31009KT P6SM BKN030
     FM302100 35006KT P6SM VCSH BKN035
     FM310200 VRB03KT P6SM BKN030
     FM310800 12003KT 4SM BR SKC
     FM310915 13003KT 1/2SM FG VV002
     FM311400 14005KT 4SM BR BKN006
     FM311500 16009KT P6SM SCT080=



000
FTUS43 KARX 301727
TAFRST
TAF
KRST 301727Z 3018/3118 31011KT P6SM BKN025
     FM302000 32008KT P6SM VCSH BKN035
     FM310100 VRB04KT P6SM BKN028
     FM310800 18004KT 5SM BR SKC
      TEMPO 3110/3113 2SM BR SCT002
     FM311430 17012KT P6SM SCT080=



000
FTUS43 KARX 301727
TAFLSE
TAF
KLSE 301727Z 3018/3118 31009KT P6SM BKN030
     FM302100 35006KT P6SM VCSH BKN035
     FM310200 VRB03KT P6SM BKN030
     FM310800 12003KT 4SM BR SKC
     FM310915 13003KT 1/2SM FG VV002
     FM311400 14005KT 4SM BR BKN006
     FM311500 16009KT P6SM SCT080=



000
FTUS43 KARX 301727
TAFRST
TAF
KRST 301727Z 3018/3118 31011KT P6SM BKN025
     FM302000 32008KT P6SM VCSH BKN035
     FM310100 VRB04KT P6SM BKN028
     FM310800 18004KT 5SM BR SKC
      TEMPO 3110/3113 2SM BR SCT002
     FM311430 17012KT P6SM SCT080=



000
FTUS43 KARX 301121
TAFRST
TAF
KRST 301121Z 3012/3112 30008KT P6SM VCSH BKN005
     FM301500 32008KT P6SM SCT008 BKN012
     FM301700 32008KT P6SM BKN015
     FM301900 32007KT P6SM BKN030
     FM310200 VRB04KT P6SM SCT030
     FM310600 21004KT 5SM BR SKC
      TEMPO 3108/3112 3SM BR SCT002=



000
FTUS43 KARX 301121
TAFLSE
TAF
KLSE 301121Z 3012/3112 VRB04KT P6SM -SHRA SCT005 BKN015
      TEMPO 3012/3014 3SM -SHRA BR BKN005
     FM301600 31007KT P6SM BKN020
     FM302000 31007KT P6SM BKN030
     FM310300 VRB04KT P6SM SCT035
     FM310800 15004KT 3SM BR SCT003=



000
FTUS43 KARX 301121
TAFRST
TAF
KRST 301121Z 3012/3112 30008KT P6SM VCSH BKN005
     FM301500 32008KT P6SM SCT008 BKN012
     FM301700 32008KT P6SM BKN015
     FM301900 32007KT P6SM BKN030
     FM310200 VRB04KT P6SM SCT030
     FM310600 21004KT 5SM BR SKC
      TEMPO 3108/3112 3SM BR SCT002=



000
FTUS43 KARX 301121
TAFLSE
TAF
KLSE 301121Z 3012/3112 VRB04KT P6SM -SHRA SCT005 BKN015
      TEMPO 3012/3014 3SM -SHRA BR BKN005
     FM301600 31007KT P6SM BKN020
     FM302000 31007KT P6SM BKN030
     FM310300 VRB04KT P6SM SCT035
     FM310800 15004KT 3SM BR SCT003=



000
FTUS43 KARX 301040 AAC
TAFLSE
TAF AMD
KLSE 301040Z 3011/3106 VRB04KT P6SM VCSH SCT005 BKN040
      TEMPO 3011/3014 3SM -SHRA BR BKN005
     FM301600 30006KT 4SM BR BKN022
     FM302000 31007KT P6SM BKN035=



000
FTUS43 KARX 301040 AAC
TAFLSE
TAF AMD
KLSE 301040Z 3011/3106 VRB04KT P6SM VCSH SCT005 BKN040
      TEMPO 3011/3014 3SM -SHRA BR BKN005
     FM301600 30006KT 4SM BR BKN022
     FM302000 31007KT P6SM BKN035=



000
FTUS43 KARX 300947 AAC
TAFRST
TAF AMD
KRST 300947Z 3010/3106 26006KT 5SM -SHRA BR OVC004
     FM301100 32005KT 3SM BR OVC008
     FM301500 31006KT 4SM BR OVC015
     FM301700 31006KT P6SM BKN025
     FM301900 31006KT P6SM BKN035=



000
FTUS43 KARX 300947 AAC
TAFRST
TAF AMD
KRST 300947Z 3010/3106 26006KT 5SM -SHRA BR OVC004
     FM301100 32005KT 3SM BR OVC008
     FM301500 31006KT 4SM BR OVC015
     FM301700 31006KT P6SM BKN025
     FM301900 31006KT P6SM BKN035=



000
FTUS43 KARX 300822 AAB
TAFLSE
TAF AMD
KLSE 300822Z 3008/3106 VRB04KT 5SM -SHRA BR BKN005
     FM301200 VRB03KT 3SM BR VCSH BKN005
      TEMPO 3012/3015 1SM BR
     FM301600 30006KT 4SM BR BKN022
     FM302000 31007KT P6SM BKN035=



000
FTUS43 KARX 300822 AAB
TAFLSE
TAF AMD
KLSE 300822Z 3008/3106 VRB04KT 5SM -SHRA BR BKN005
     FM301200 VRB03KT 3SM BR VCSH BKN005
      TEMPO 3012/3015 1SM BR
     FM301600 30006KT 4SM BR BKN022
     FM302000 31007KT P6SM BKN035=



000
FTUS43 KARX 300634 AAA
TAFLSE
TAF AMD
KLSE 300634Z 3007/3106 VRB04KT 5SM BR VCSH SCT005 BKN025
      TEMPO 3007/3010 3SM SHRA SCT005 BKN015
     FM301200 VRB03KT 3SM BR BKN005
      TEMPO 3012/3015 1SM BR
     FM301600 30006KT 4SM BR BKN022
     FM302000 31007KT P6SM BKN035=



000
FTUS43 KARX 300634 AAA
TAFLSE
TAF AMD
KLSE 300634Z 3007/3106 VRB04KT 5SM BR VCSH SCT005 BKN025
      TEMPO 3007/3010 3SM SHRA SCT005 BKN015
     FM301200 VRB03KT 3SM BR BKN005
      TEMPO 3012/3015 1SM BR
     FM301600 30006KT 4SM BR BKN022
     FM302000 31007KT P6SM BKN035=



000
FTUS43 KARX 300627 AAB
TAFRST
TAF AMD
KRST 300627Z 3006/3106 VRB04KT P6SM -SHRA SCT008 BKN012
     FM300900 31005KT 5SM BR VCSH BKN008
     FM301100 32005KT 3SM BR OVC008
     FM301500 31006KT 4SM BR OVC015
     FM301700 31006KT P6SM BKN025
     FM301900 31006KT P6SM BKN035=



000
FTUS43 KARX 300627 AAB
TAFRST
TAF AMD
KRST 300627Z 3006/3106 VRB04KT P6SM -SHRA SCT008 BKN012
     FM300900 31005KT 5SM BR VCSH BKN008
     FM301100 32005KT 3SM BR OVC008
     FM301500 31006KT 4SM BR OVC015
     FM301700 31006KT P6SM BKN025
     FM301900 31006KT P6SM BKN035=



000
FTUS43 KARX 300548 AAA
TAFRST
TAF AMD
KRST 300548Z 3006/3106 VRB04KT P6SM -SHRA SCT012 BKN020
     FM300800 31005KT 5SM BR OVC012
     FM301100 32005KT 3SM BR OVC008
     FM301500 31006KT 4SM BR OVC015
     FM301700 31006KT P6SM BKN025
     FM301900 31006KT P6SM BKN035=



000
FTUS43 KARX 300548 AAA
TAFRST
TAF AMD
KRST 300548Z 3006/3106 VRB04KT P6SM -SHRA SCT012 BKN020
     FM300800 31005KT 5SM BR OVC012
     FM301100 32005KT 3SM BR OVC008
     FM301500 31006KT 4SM BR OVC015
     FM301700 31006KT P6SM BKN025
     FM301900 31006KT P6SM BKN035=



000
FTUS43 KARX 300520
TAFLSE
TAF
KLSE 300520Z 3006/3106 VRB05KT P6SM VCSH SCT040 BKN060
      TEMPO 3006/3008 3SM -SHRA BKN035 OVC050
     FM300800 VRB03KT 3SM BR OVC025
     FM301100 30003KT 1SM BR OVC012
     FM301600 29004KT 4SM BR BKN022
     FM302000 30005KT P6SM BKN035=



000
FTUS43 KARX 300520
TAFRST
TAF
KRST 300520Z 3006/3106 VRB04KT P6SM -RA OVC050
     FM300800 31005KT 5SM BR OVC012
     FM301100 32005KT 3SM BR OVC008
     FM301500 31006KT 4SM BR OVC015
     FM301700 31006KT P6SM BKN025
     FM301900 31006KT P6SM BKN035=



000
FTUS43 KARX 300520
TAFRST
TAF
KRST 300520Z 3006/3106 VRB04KT P6SM -RA OVC050
     FM300800 31005KT 5SM BR OVC012
     FM301100 32005KT 3SM BR OVC008
     FM301500 31006KT 4SM BR OVC015
     FM301700 31006KT P6SM BKN025
     FM301900 31006KT P6SM BKN035=



000
FTUS43 KARX 300520
TAFLSE
TAF
KLSE 300520Z 3006/3106 VRB05KT P6SM VCSH SCT040 BKN060
      TEMPO 3006/3008 3SM -SHRA BKN035 OVC050
     FM300800 VRB03KT 3SM BR OVC025
     FM301100 30003KT 1SM BR OVC012
     FM301600 29004KT 4SM BR BKN022
     FM302000 30005KT P6SM BKN035=



000
FTUS43 KARX 300400 AAB
TAFRST
TAF AMD
KRST 300400Z 3004/3024 VRB04KT P6SM -RA OVC050
     FM300800 29005KT 1SM BR OVC006
     FM301600 31006KT 3SM BR OVC015
     FM301900 31006KT P6SM BKN025=



000
FTUS43 KARX 300400 AAB
TAFRST
TAF AMD
KRST 300400Z 3004/3024 VRB04KT P6SM -RA OVC050
     FM300800 29005KT 1SM BR OVC006
     FM301600 31006KT 3SM BR OVC015
     FM301900 31006KT P6SM BKN025=



000
FTUS43 KARX 300215 AAA
TAFRST
TAF AMD
KRST 300215Z 3002/3024 20006KT 3SM -SHRA BR SCT035 OVC050
     FM300300 24004KT 5SM BR VCSH OVC050
     FM300800 29005KT 1SM BR OVC006
     FM301600 31006KT 3SM BR OVC015
     FM301900 31006KT P6SM BKN025=



000
FTUS43 KARX 300215 AAA
TAFRST
TAF AMD
KRST 300215Z 3002/3024 20006KT 3SM -SHRA BR SCT035 OVC050
     FM300300 24004KT 5SM BR VCSH OVC050
     FM300800 29005KT 1SM BR OVC006
     FM301600 31006KT 3SM BR OVC015
     FM301900 31006KT P6SM BKN025=



000
FTUS43 KARX 300213 AAB
TAFLSE
TAF AMD
KLSE 300213Z 3002/3024 VRB05KT P6SM VCSH SCT040 BKN060
     FM300500 26004KT 3SM BR OVC015
     FM300900 28005KT 1SM BR OVC008
     FM301600 29006KT 4SM BR BKN022
     FM301900 30006KT P6SM BKN030=



000
FTUS43 KARX 300213 AAB
TAFLSE
TAF AMD
KLSE 300213Z 3002/3024 VRB05KT P6SM VCSH SCT040 BKN060
     FM300500 26004KT 3SM BR OVC015
     FM300900 28005KT 1SM BR OVC008
     FM301600 29006KT 4SM BR BKN022
     FM301900 30006KT P6SM BKN030=



000
FTUS43 KARX 300043 CCA
TAFLSE
TAF COR
KLSE 300043Z 3001/3024 20007KT P6SM VCTS SCT030CB BKN060
      TEMPO 3001/3003 5SM -TSRA BKN035CB
     FM300300 VRB05KT 5SM -SHRA SCT015 BKN025
     FM300500 26004KT 3SM BR OVC015
     FM300900 28005KT 1SM BR OVC008
     FM301600 29006KT 4SM BR BKN022
     FM301900 30006KT P6SM BKN030=



000
FTUS43 KARX 300043 CCA
TAFLSE
TAF COR
KLSE 300043Z 3001/3024 20007KT P6SM VCTS SCT030CB BKN060
      TEMPO 3001/3003 5SM -TSRA BKN035CB
     FM300300 VRB05KT 5SM -SHRA SCT015 BKN025
     FM300500 26004KT 3SM BR OVC015
     FM300900 28005KT 1SM BR OVC008
     FM301600 29006KT 4SM BR BKN022
     FM301900 30006KT P6SM BKN030=



000
FTUS43 KARX 300042 AAA
TAFLSE
TAF AMD
KLSE 300042Z 3001/3024 20007KT P6SM SCT030 BKN060
      TEMPO 3001/3003 5SM -TSRA BKN035CB
     FM300300 VRB05KT 5SM -SHRA SCT015 BKN025
     FM300500 26004KT 3SM BR OVC015
     FM300900 28005KT 1SM BR OVC008
     FM301600 29006KT 4SM BR BKN022
     FM301900 30006KT P6SM BKN030=



000
FTUS43 KARX 300042 AAA
TAFLSE
TAF AMD
KLSE 300042Z 3001/3024 20007KT P6SM SCT030 BKN060
      TEMPO 3001/3003 5SM -TSRA BKN035CB
     FM300300 VRB05KT 5SM -SHRA SCT015 BKN025
     FM300500 26004KT 3SM BR OVC015
     FM300900 28005KT 1SM BR OVC008
     FM301600 29006KT 4SM BR BKN022
     FM301900 30006KT P6SM BKN030=



    US Dept of Commerce
    National Oceanic and Atmospheric Administration
    National Weather Service
    1325 East West Highway
    Silver Spring, MD 20910
    Page Author: NWS Internet Services Team
Disclaimer
Information Quality
Credits
Glossary
Privacy Policy
Freedom of Information Act (FOIA)
About Us
Career Opportunities